Colorado Springs, CO (80920)

10:40 PM MDT on August 30, 2016 (GMT -0600)
Briargate | | Change Station

Elev 6952 ft 38.96 °N, 104.76 °W | Updated 4 minutes ago

Mostly Cloudy
Mostly Cloudy
57.6 °F
Feels Like 57.6 °F
N
0.0
Wind Variable Wind from ESE

Today
High -- | Low -- °F
--% Chance of Precip.
Yesterday
High -- | Low -- °F
Precip. -- in
Pressure 30.18 in
Visibility 10.0 miles
Clouds Few 3800 ft
Scattered Clouds 4600 ft
Scattered Clouds 6000 ft
Mostly Cloudy 9000 ft
Mostly Cloudy 12000 ft
Dew Point 52 °F
Humidity 82%
Rainfall 0.00 in
Snow Depth Not available.
6:26 AM 7:31 PM
Waning Crescent, 1% visible
METAR KAFF 310358Z AUTO 12002KT 10SM FEW038 SCT046 SCT060 BKN090 BKN120 16/11 A3039 RMK AO2 SLP218 T01600110
Pressure 30.18 in
Visibility 10.0 miles
Clouds Few 3800 ft
Scattered Clouds 4600 ft
Scattered Clouds 6000 ft
Mostly Cloudy 9000 ft
Mostly Cloudy 12000 ft
Dew Point 52 °F
Humidity 82%
Rainfall 0.00 in
Snow Depth Not available.
6:26 AM 7:31 PM
Waning Crescent, 1% visible
METAR KAFF 310358Z AUTO 12002KT 10SM FEW038 SCT046 SCT060 BKN090 BKN120 16/11 A3039 RMK AO2 SLP218 T01600110

10-Day Weather Forecast

Almanac

Astronomy

Aug. 30, 2016 Rise Set
Actual Time
Civil Twilight
Nautical Twilight
Astronomical Twilight
Moon
Length of Visible Light
Length of Day
Tomorrow will be .
, % of the Moon is Illuminated

Today's Extremes

State Highs State Lows

Community

WunderPhotos

Upload Photos

1,936,035 photos uploaded!

WunderBlog® & News

Nearby

Air Quality

  Air Quality AQ Index Pollutant
Not available.

Snow Depth

Station Depth Elevation

Earthquake Activity

City Distance Mag. Time & Date
Minimum magnitude displayed is 2.5.

Coastal Water Temperatures

Place Temperature

Stations

Nearby Weather Stations

Station Location Temp. Windchill Dew Point Humidity Wind Precip. Elev Updated Type
                   

Watches & Warnings

There are currently no watches in effect.